Time;durP1;ratioP1;P1;durP2;ratioP2;P2;SDS_P1;SDS_P2;PMS_P1;PMS_P2;Temp;Humidity;BMP_temperature;BMP_pressure;BME280_temperature;BME280_humidity;BME280_pressure;Samples;Min_cycle;Max_cycle;Signal;HPM_P1;HPM_P2
2022/02/07 00:02:51;;;;;;;327.65;116.45;;;7.20;99.90;;;;;;5075406;28;20032;-80
2022/02/07 00:06:04;;;;;;;;;;;;;;;;;;;;;
2022/02/07 00:08:34;;;;;;;328.55;116.60;;;7.20;99.90;;;;;;5084535;28;20385;-83
2022/02/07 00:11:04;;;;;;;336.05;118.10;;;7.20;99.90;;;;;;5078910;28;20020;-83
2022/02/07 00:13:30;;;;;;;329.25;117.82;;;7.20;99.90;;;;;;5078694;28;20033;-80
2022/02/07 00:16:00;;;;;;;356.52;121.25;;;7.20;99.90;;;;;;5078591;28;20478;-80
2022/02/07 00:18:26;;;;;;;378.85;124.90;;;7.20;99.90;;;;;;5075887;28;20031;-80
2022/02/07 00:20:52;;;;;;;369.20;123.32;;;7.10;99.90;;;;;;5061153;28;20470;-80
2022/02/07 00:23:24;;;;;;;381.73;124.50;;;7.10;99.90;;;;;;5068926;28;20035;-81
2022/02/07 00:25:53;;;;;;;382.58;124.05;;;7.10;99.90;;;;;;5085667;28;20029;-80
2022/02/07 00:28:23;;;;;;;388.52;125.32;;;7.10;99.90;;;;;;5090015;28;20020;-80
2022/02/07 00:30:52;;;;;;;402.67;127.28;;;7.10;99.90;;;;;;5072752;28;20028;-81
2022/02/07 00:33:19;;;;;;;352.30;119.65;;;7.20;99.90;;;;;;5080239;28;20032;-80
2022/02/07 00:35:48;;;;;;;377.27;120.15;;;7.20;99.90;;;;;;5085675;28;20027;-81
2022/02/07 00:38:20;;;;;;;333.20;115.78;;;7.20;99.90;;;;;;5080101;28;20029;-81
2022/02/07 00:41:25;;;;;;;314.42;113.00;;;7.30;99.90;;;;;;5083261;28;20036;-84
2022/02/07 00:44:31;;;;;;;274.95;107.22;;;7.40;99.90;;;;;;5076363;28;20144;-83
2022/02/07 00:47:21;;;;;;;;;;;;;;;;;;;;;
2022/02/07 00:50:43;;;;;;;272.20;104.60;;;7.60;99.90;;;;;;5078631;28;20031;-83
2022/02/07 01:03:26;;;;;;;248.93;95.07;;;7.90;99.90;;;;;;5080153;28;20039;-82
2022/02/07 01:05:55;;;;;;;249.75;99.57;;;7.90;99.90;;;;;;5085044;28;20031;-82
2022/02/07 01:48:05;;;;;;;251.57;93.95;;;8.10;99.90;;;;;;4980848;28;20138;-83
2022/02/07 02:05:20;;;;;;;;;;;;;;;;;;;;;
2022/02/07 02:08:05;;;;;;;322.83;106.53;;;8.10;99.90;;;;;;4998445;28;20038;-83
2022/02/07 02:11:05;;;;;;;372.58;113.05;;;8.00;99.90;;;;;;5004529;28;20046;-84
2022/02/07 02:51:07;;;;;;;258.67;97.40;;;7.90;99.90;;;;;;4845261;29;20119;-83
2022/02/07 02:53:36;;;;;;;280.50;102.35;;;7.90;99.90;;;;;;4854630;29;20029;-82
2022/02/07 02:59:06;;;;;;;274.92;100.47;;;8.00;99.90;;;;;;4973146;28;20036;-83
2022/02/07 03:02:02;;;;;;;278.67;104.05;;;8.00;99.90;;;;;;5077770;28;20063;-82
2022/02/07 03:28:25;;;;;;;248.35;95.07;;;8.00;99.90;;;;;;4987688;28;20038;-84
2022/02/07 03:34:52;;;;;;;244.70;92.10;;;8.00;99.90;;;;;;5028191;28;20089;-83
2022/02/07 03:41:42;;;;;;;221.23;86.13;;;8.00;99.90;;;;;;5028551;28;20088;-84
2022/02/07 03:51:39;;;;;;;;;;;;;;;;;;;;;
2022/02/07 03:58:06;;;;;;;227.68;89.88;;;7.90;99.90;;;;;;4988125;28;20033;-82
2022/02/07 04:01:12;;;;;;;256.23;92.78;;;7.90;99.90;;;;;;4991421;28;20133;-82
2022/02/07 04:04:32;;;;;;;235.07;90.75;;;7.80;99.90;;;;;;4992124;28;20038;-83
2022/02/07 04:07:22;;;;;;;214.80;86.07;;;7.80;99.90;;;;;;4942861;28;20053;-82
2022/02/07 04:09:55;;;;;;;208.25;85.97;;;7.80;99.90;;;;;;4992349;28;20117;-82
2022/02/07 04:13:09;;;;;;;;;;;7.80;99.90;;;;;;5046327;28;20029;-82
2022/02/07 04:15:41;;;;;;;211.00;84.85;;;7.80;99.90;;;;;;5048136;28;19940;-82
2022/02/07 04:25:26;;;;;;;210.38;86.50;;;7.80;99.90;;;;;;5058487;28;20083;-82
2022/02/07 04:38:39;;;;;;;215.80;87.00;;;7.90;99.90;;;;;;5035007;28;20034;-82
2022/02/07 04:41:53;;;;;;;;;;;;;;;;;;;;;
2022/02/07 05:02:37;;;;;;;;;;;;;;;;;;;;;
2022/02/07 05:14:46;;;;;;;282.40;105.80;;;7.80;99.90;;;;;;5057691;28;19912;-81
2022/02/07 05:20:07;;;;;;;324.85;119.05;;;7.70;99.90;;;;;;5060434;28;20040;-83
2022/02/07 05:22:34;;;;;;;347.42;127.93;;;7.60;99.90;;;;;;5051304;28;20187;-82
2022/02/07 05:25:29;;;;;;;321.35;128.00;;;7.50;99.90;;;;;;5056550;28;20445;-82
2022/02/07 05:28:10;;;;;;;333.48;133.77;;;7.40;99.90;;;;;;5044443;28;20037;-82
2022/02/07 05:31:10;;;;;;;347.60;131.25;;;7.40;99.90;;;;;;5063257;28;20078;-82
2022/02/07 05:33:38;;;;;;;343.75;133.60;;;7.30;99.90;;;;;;5026106;28;20033;-84
2022/02/07 05:36:40;;;;;;;;;;;;;;;;;;;;;
2022/02/07 05:42:14;;;;;;;358.08;130.77;;;7.30;99.90;;;;;;5058656;28;20036;-84
2022/02/07 05:44:58;;;;;;;351.42;133.30;;;7.30;99.90;;;;;;5067596;28;20378;-83
2022/02/07 05:47:29;;;;;;;332.52;126.85;;;7.30;99.90;;;;;;5058243;28;20039;-83
2022/02/07 05:50:01;;;;;;;336.90;125.50;;;7.40;99.90;;;;;;5059387;28;20028;-83
2022/02/07 05:52:58;;;;;;;321.15;128.07;;;7.40;99.90;;;;;;5066360;28;20031;-83
2022/02/07 05:55:44;;;;;;;309.20;124.63;;;7.40;99.90;;;;;;5060855;28;20025;-82
2022/02/07 05:58:36;;;;;;;305.63;121.53;;;7.40;99.90;;;;;;5055272;28;20017;-82
2022/02/07 06:01:02;;;;;;;299.92;118.50;;;7.40;99.90;;;;;;5080247;28;20044;-82
2022/02/07 06:03:29;;;;;;;323.33;122.82;;;7.40;99.90;;;;;;5089289;28;20024;-82
2022/02/07 06:05:55;;;;;;;313.70;123.15;;;7.40;99.90;;;;;;5081541;28;20812;-82
2022/02/07 06:08:39;;;;;;;300.73;122.07;;;7.40;99.90;;;;;;5087445;28;20020;-82
2022/02/07 06:11:14;;;;;;;315.83;123.10;;;7.40;99.90;;;;;;5066913;28;20028;-82
2022/02/07 06:13:40;;;;;;;310.83;124.38;;;7.30;99.90;;;;;;5075253;28;20081;-83
2022/02/07 06:16:16;;;;;;;307.80;119.82;;;7.30;99.90;;;;;;5081727;28;20017;-82
2022/02/07 06:18:49;;;;;;;299.92;114.82;;;7.30;99.90;;;;;;5059932;28;20047;-82
2022/02/07 06:21:21;;;;;;;304.70;119.35;;;7.30;99.90;;;;;;5087168;28;20093;-82
2022/02/07 06:23:49;;;;;;;298.42;119.00;;;7.30;99.90;;;;;;5076339;28;20040;-81
2022/02/07 06:26:26;;;;;;;316.85;120.63;;;7.30;99.90;;;;;;5084729;28;20401;-82
2022/02/07 06:28:51;;;;;;;299.38;120.13;;;7.30;99.90;;;;;;5080485;28;20023;-81
2022/02/07 06:31:17;;;;;;;288.20;117.75;;;7.30;99.90;;;;;;5079902;28;20379;-82
2022/02/07 06:34:22;;;;;;;288.55;117.38;;;7.30;99.90;;;;;;5076048;28;20077;-81
2022/02/07 06:36:50;;;;;;;254.00;113.53;;;7.20;99.90;;;;;;5077564;28;20032;-82
2022/02/07 06:39:16;;;;;;;249.02;108.80;;;7.20;99.90;;;;;;5072518;28;20461;-82
2022/02/07 06:41:52;;;;;;;246.13;109.05;;;7.10;99.90;;;;;;5071566;28;20107;-82
2022/02/07 06:44:24;;;;;;;228.98;103.85;;;7.10;99.90;;;;;;5085212;28;20045;-81
2022/02/07 06:46:51;;;;;;;218.00;101.40;;;7.20;99.90;;;;;;5082894;28;20475;-82
2022/02/07 06:49:21;;;;;;;211.15;100.50;;;7.30;99.90;;;;;;5083580;28;20035;-81
2022/02/07 06:51:48;;;;;;;221.95;98.38;;;7.40;99.90;;;;;;5085816;28;20031;-82
2022/02/07 06:54:35;;;;;;;220.38;101.25;;;7.50;99.90;;;;;;5066113;28;20027;-82
2022/02/07 06:57:08;;;;;;;204.63;96.10;;;7.60;99.90;;;;;;5077322;28;20028;-82
2022/02/07 06:59:48;;;;;;;;;;;7.60;99.90;;;;;;5057348;28;20048;-82
2022/02/07 07:02:27;;;;;;;220.20;97.00;;;7.50;99.90;;;;;;5082004;28;19908;-83
2022/02/07 07:04:58;;;;;;;219.80;98.15;;;7.50;99.90;;;;;;5084264;28;20024;-81
2022/02/07 07:10:34;;;;;;;223.75;96.97;;;7.60;99.90;;;;;;5029857;28;20048;-82
2022/02/07 07:13:10;;;;;;;220.93;99.88;;;7.60;99.90;;;;;;5063289;28;20086;-86
2022/02/07 07:15:59;;;;;;;215.15;99.13;;;7.60;99.90;;;;;;5082174;28;20032;-81
2022/02/07 07:18:25;;;;;;;199.73;93.85;;;7.60;99.90;;;;;;5075919;28;20027;-82
2022/02/07 07:21:14;;;;;;;203.20;89.22;;;7.60;99.90;;;;;;5070462;28;20119;-82
2022/02/07 07:23:40;;;;;;;179.75;85.80;;;7.70;99.90;;;;;;5086364;28;20032;-84
2022/02/07 07:26:07;;;;;;;165.73;80.75;;;7.70;99.90;;;;;;5084086;28;20032;-82
2022/02/07 07:28:38;;;;;;;176.70;83.18;;;7.80;99.90;;;;;;5075435;28;20020;-82
2022/02/07 07:31:23;;;;;;;172.25;85.20;;;7.90;99.90;;;;;;5061682;28;20496;-82
2022/02/07 07:34:53;;;;;;;167.02;81.70;;;8.10;99.90;;;;;;5087937;28;20060;-83
2022/02/07 07:37:28;;;;;;;169.07;79.47;;;8.20;99.90;;;;;;5031505;28;20061;-82
2022/02/07 07:39:59;;;;;;;166.50;81.20;;;8.30;99.90;;;;;;5029479;28;20045;-87
2022/02/07 07:42:25;;;;;;;188.27;85.03;;;8.30;99.90;;;;;;5074258;28;20036;-84
2022/02/07 07:45:09;;;;;;;170.98;83.28;;;8.30;99.90;;;;;;5090144;28;20093;-83
2022/02/07 07:47:48;;;;;;;199.05;90.28;;;8.40;99.90;;;;;;5086979;28;20028;-84
2022/02/07 07:50:29;;;;;;;210.57;93.22;;;8.30;99.90;;;;;;5085385;28;20034;-83
2022/02/07 08:04:31;;;;;;;188.70;91.45;;;8.00;99.90;;;;;;5091610;28;20086;-83
2022/02/07 08:07:32;;;;;;;211.75;100.43;;;8.00;99.90;;;;;;5084818;28;20066;-84
2022/02/07 08:12:57;;;;;;;196.18;89.45;;;8.10;99.90;;;;;;5082323;28;20444;-83
2022/02/07 08:15:23;;;;;;;176.10;85.97;;;8.10;99.90;;;;;;5077711;28;20040;-84
2022/02/07 08:17:49;;;;;;;160.48;75.80;;;8.10;99.90;;;;;;5082647;28;20494;-84
2022/02/07 08:20:15;;;;;;;146.35;75.30;;;8.10;99.90;;;;;;5086349;28;20036;-83
2022/02/07 08:22:41;;;;;;;141.30;73.88;;;8.10;99.90;;;;;;5085998;28;20428;-84
2022/02/07 08:25:18;;;;;;;148.13;71.40;;;8.10;99.90;;;;;;5090510;28;20024;-84
2022/02/07 08:27:53;;;;;;;145.52;71.32;;;8.20;99.90;;;;;;5089474;28;20379;-84
2022/02/07 08:30:31;;;;;;;129.02;65.25;;;8.20;99.90;;;;;;5086167;28;20058;-83
2022/02/07 08:33:01;;;;;;;142.55;72.70;;;8.10;99.90;;;;;;5084413;28;20024;-83
2022/02/07 08:35:30;;;;;;;131.45;67.93;;;8.20;99.90;;;;;;5086215;28;20019;-83
2022/02/07 08:37:59;;;;;;;141.90;72.05;;;8.20;99.90;;;;;;5084695;28;20017;-83
2022/02/07 08:40:33;;;;;;;120.75;62.40;;;8.30;99.90;;;;;;5067775;28;20058;-83
2022/02/07 08:43:02;;;;;;;140.68;75.40;;;8.50;99.90;;;;;;5084340;28;20139;-83
2022/02/07 08:45:47;;;;;;;149.40;74.53;;;8.50;99.90;;;;;;5083003;28;20028;-83
2022/02/07 08:48:13;;;;;;;152.15;75.15;;;8.50;99.90;;;;;;5071981;28;20037;-83
2022/02/07 08:50:44;;;;;;;139.73;75.18;;;8.40;99.90;;;;;;5084100;28;20181;-83
2022/02/07 08:53:26;;;;;;;152.93;74.70;;;8.40;99.90;;;;;;5062146;28;20027;-83
2022/02/07 08:55:57;;;;;;;174.02;87.78;;;8.30;99.90;;;;;;5085236;28;20028;-82
2022/02/07 08:58:55;;;;;;;164.30;86.07;;;8.10;99.90;;;;;;5075003;28;20025;-83
2022/02/07 09:01:39;;;;;;;154.73;78.75;;;8.00;99.90;;;;;;5068077;28;20610;-83
2022/02/07 09:10:38;;;;;;;139.45;67.13;;;8.30;99.90;;;;;;5062494;28;20122;-83
2022/02/07 09:13:35;;;;;;;122.60;63.35;;;8.50;99.90;;;;;;5089418;28;20052;-83
2022/02/07 09:16:41;;;;;;;;;;;;;;;;;;;;;
2022/02/07 09:19:49;;;;;;;181.68;85.80;;;8.30;99.90;;;;;;4914144;29;20473;-83
2022/02/07 09:22:15;;;;;;;163.27;84.78;;;8.20;99.90;;;;;;4991527;28;20078;-84
2022/02/07 09:24:55;;;;;;;154.57;79.18;;;8.40;99.90;;;;;;5067579;28;20029;-82
2022/02/07 09:28:19;;;;;;;132.60;66.75;;;8.40;99.90;;;;;;5064445;28;20162;-82
2022/02/07 09:30:49;;;;;;;124.35;65.10;;;8.60;99.90;;;;;;5071535;28;20047;-82
2022/02/07 09:33:16;;;;;;;134.13;66.82;;;8.80;99.90;;;;;;5086991;28;20110;-82
2022/02/07 09:35:54;;;;;;;125.32;68.40;;;9.00;99.90;;;;;;5071365;28;20032;-83
2022/02/07 09:38:36;;;;;;;;;;;;;;;;;;;;;
2022/02/07 09:41:25;;;;;;;132.38;69.50;;;8.90;99.90;;;;;;5081191;28;20486;-83
2022/02/07 09:44:04;;;;;;;;;;;;;;;;;;;;;
2022/02/07 09:46:57;;;;;;;119.25;63.90;;;9.00;99.90;;;;;;5086107;28;20414;-82
2022/02/07 09:49:25;;;;;;;135.32;66.32;;;9.10;99.90;;;;;;5007683;28;20029;-83
2022/02/07 09:52:09;;;;;;;150.68;71.13;;;9.10;99.90;;;;;;5000595;28;20061;-82
2022/02/07 09:54:57;;;;;;;137.75;70.55;;;9.00;99.90;;;;;;5051152;28;20430;-82
2022/02/07 09:57:42;;;;;;;141.18;72.05;;;8.90;99.90;;;;;;5082360;28;20028;-81
2022/02/07 10:00:21;;;;;;;134.43;66.15;;;8.80;99.90;;;;;;5075889;28;20045;-82
2022/02/07 10:03:05;;;;;;;132.27;66.03;;;8.80;99.90;;;;;;5083412;28;20020;-82
2022/02/07 10:05:59;;;;;;;124.88;63.25;;;8.90;99.90;;;;;;5070035;28;20530;-82
2022/02/07 10:08:40;;;;;;;126.60;62.60;;;9.00;99.90;;;;;;5066746;28;20032;-83
2022/02/07 10:11:33;;;;;;;131.95;60.65;;;8.90;99.90;;;;;;5080670;28;20390;-82
2022/02/07 10:14:13;;;;;;;120.90;62.47;;;8.90;99.90;;;;;;5076969;28;20012;-82
2022/02/07 10:40:16;;;;;;;77.90;40.30;;;9.50;99.90;;;;;;5077844;28;20024;-82
2022/02/07 10:43:29;;;;;;;;;;;9.60;99.90;;;;;;5076526;28;20517;-82
2022/02/07 10:46:16;;;;;;;61.15;33.03;;;9.90;99.90;;;;;;5080021;28;19908;-83
2022/02/07 10:49:10;;;;;;;33.15;20.40;;;10.10;99.90;;;;;;5076643;28;20086;-83
2022/02/07 10:51:39;;;;;;;80.90;47.20;;;10.40;99.90;;;;;;5084343;28;20043;-83
2022/02/07 10:54:12;;;;;;;78.38;45.80;;;10.50;99.90;;;;;;5057857;28;20020;-82
2022/02/07 10:56:45;;;;;;;81.20;38.95;;;10.30;99.90;;;;;;5066333;28;20089;-81
2022/02/07 10:59:34;;;;;;;;;;;;;;;;;;;;;
2022/02/07 11:04:45;;;;;;;17.50;8.73;;;10.80;99.90;;;;;;5055539;28;20021;-83
2022/02/07 11:07:12;;;;;;;7.57;4.60;;;11.20;99.90;;;;;;5058014;28;20503;-83
2022/02/07 11:09:57;;;;;;;1.42;0.98;;;11.70;80.10;;;;;;5053966;28;20029;-85
2022/02/07 11:15:23;;;;;;;7.97;0.73;;;12.30;60.40;;;;;;5058318;28;20028;-83
2022/02/07 11:20:54;;;;;;;1.90;0.40;;;12.20;55.50;;;;;;5060634;28;20032;-83
2022/02/07 11:23:30;;;;;;;4.45;0.60;;;12.10;55.50;;;;;;5055483;28;20071;-84
2022/02/07 11:26:04;;;;;;;2.78;0.73;;;12.00;57.20;;;;;;5062738;28;20116;-83
2022/02/07 11:28:42;;;;;;;2.55;0.60;;;12.10;57.70;;;;;;5065723;28;20544;-83
2022/02/07 11:31:09;;;;;;;4.82;0.88;;;12.00;57.90;;;;;;5058422;28;20553;-83
2022/02/07 11:34:02;;;;;;;1.58;0.50;;;12.00;57.30;;;;;;5049975;28;20098;-85
2022/02/07 11:36:27;;;;;;;;;;;12.00;56.90;;;;;;5063941;28;20556;-85
2022/02/07 11:39:11;;;;;;;1.70;0.50;;;11.90;55.80;;;;;;5055997;28;19912;-83
2022/02/07 11:41:58;;;;;;;7.15;0.70;;;11.70;58.50;;;;;;5063838;28;20040;-83
2022/02/07 11:44:43;;;;;;;5.75;0.82;;;11.80;58.80;;;;;;5054166;28;20021;-83
2022/02/07 11:47:33;;;;;;;3.92;0.68;;;11.80;60.20;;;;;;5049403;28;20463;-82
2022/02/07 11:50:04;;;;;;;1.25;0.40;;;11.70;57.10;;;;;;5063244;28;20083;-82
2022/02/07 11:52:40;;;;;;;8.48;0.70;;;11.80;55.20;;;;;;5060321;28;20664;-82
2022/02/07 11:55:07;;;;;;;1.52;0.40;;;11.80;56.20;;;;;;5058764;28;20048;-82
2022/02/07 11:57:37;;;;;;;0.30;0.30;;;12.00;49.80;;;;;;5064858;28;20275;-85
2022/02/07 12:00:15;;;;;;;1.38;0.22;;;12.10;47.80;;;;;;5046108;28;20048;-80
2022/02/07 12:02:48;;;;;;;3.75;0.20;;;12.20;47.00;;;;;;5054794;28;20029;-82
2022/02/07 12:05:23;;;;;;;0.77;0.10;;;12.30;46.10;;;;;;5059395;28;20021;-82
2022/02/07 12:08:07;;;;;;;1.23;0.25;;;12.20;45.90;;;;;;5073949;28;20028;-82
2022/02/07 12:10:39;;;;;;;0.22;0.22;;;12.30;46.80;;;;;;5058448;28;20035;-82
2022/02/07 12:13:34;;;;;;;0.10;0.10;;;12.30;45.20;;;;;;5081466;28;20033;-82
2022/02/07 12:16:18;;;;;;;0.93;0.40;;;12.20;48.10;;;;;;5060415;28;20494;-82
2022/02/07 12:19:14;;;;;;;1.15;0.50;;;12.20;48.00;;;;;;5056002;28;20101;-83
2022/02/07 12:21:40;;;;;;;1.70;0.57;;;12.20;47.50;;;;;;5061187;28;20036;-81
2022/02/07 12:24:07;;;;;;;1.50;0.50;;;12.20;44.20;;;;;;5070390;28;20032;-82
2022/02/07 12:26:41;;;;;;;0.50;0.30;;;12.10;45.70;;;;;;5072961;28;20395;-81
2022/02/07 12:29:19;;;;;;;0.45;0.20;;;12.20;45.50;;;;;;5069793;28;20103;-82
2022/02/07 12:31:45;;;;;;;1.27;0.30;;;12.20;43.00;;;;;;5068072;28;20078;-83
2022/02/07 12:34:19;;;;;;;0.93;0.50;;;12.40;43.20;;;;;;5064175;28;20017;-83
2022/02/07 12:36:45;;;;;;;3.88;0.20;;;13.20;41.90;;;;;;5067807;28;20040;-83
2022/02/07 12:39:14;;;;;;;0.10;0.08;;;14.50;41.00;;;;;;5059222;28;20021;-83
2022/02/07 12:41:41;;;;;;;0.98;0.40;;;15.30;39.80;;;;;;5069927;28;20543;-83
2022/02/07 12:44:09;;;;;;;0.63;0.20;;;15.40;38.40;;;;;;5057337;28;20020;-81
2022/02/07 12:46:36;;;;;;;5.65;0.45;;;16.00;37.80;;;;;;5066834;28;20041;-81
2022/02/07 12:49:11;;;;;;;0.63;0.30;;;15.60;38.50;;;;;;5058692;28;20029;-80
2022/02/07 12:51:43;;;;;;;8.55;0.80;;;15.80;38.40;;;;;;5081748;28;20510;-81
2022/02/07 12:54:17;;;;;;;0.57;0.35;;;16.10;37.20;;;;;;5069209;28;20021;-81
2022/02/07 12:56:44;;;;;;;0.93;0.30;;;15.70;35.90;;;;;;5062711;28;20386;-80
2022/02/07 12:59:10;;;;;;;0.30;0.30;;;16.00;37.20;;;;;;5067813;28;20036;-82
2022/02/07 13:01:42;;;;;;;5.22;1.00;;;15.80;35.10;;;;;;5077615;28;20129;-82
2022/02/07 13:04:20;;;;;;;2.85;1.15;;;16.10;36.80;;;;;;5060988;28;20052;-81
2022/02/07 13:06:52;;;;;;;1.13;0.40;;;16.10;36.60;;;;;;5066251;28;20044;-81
2022/02/07 13:09:29;;;;;;;1.08;0.30;;;16.40;36.70;;;;;;5057306;28;20028;-81
2022/02/07 13:14:42;;;;;;;0.47;0.40;;;16.40;37.00;;;;;;5058556;28;20120;-81
2022/02/07 13:17:20;;;;;;;0.75;0.40;;;16.30;34.80;;;;;;5063832;28;20483;-81
2022/02/07 13:19:52;;;;;;;0.30;0.30;;;16.60;34.20;;;;;;5056688;28;20082;-82
2022/02/07 13:22:20;;;;;;;1.30;0.52;;;17.40;33.30;;;;;;5064899;28;20021;-80
2022/02/07 13:24:59;;;;;;;1.17;0.63;;;17.10;34.00;;;;;;5058903;28;20025;-79
2022/02/07 13:27:48;;;;;;;1.83;0.60;;;17.30;35.40;;;;;;5061453;28;20554;-79
2022/02/07 13:30:15;;;;;;;1.45;0.50;;;16.70;37.90;;;;;;5052763;28;20044;-80
2022/02/07 13:32:41;;;;;;;0.38;0.30;;;17.50;36.60;;;;;;5057881;28;20021;-79
2022/02/07 13:35:13;;;;;;;0.77;0.50;;;17.50;35.70;;;;;;5061250;28;20103;-81
2022/02/07 13:37:41;;;;;;;0.38;0.32;;;18.20;34.10;;;;;;5061960;28;20055;-79
2022/02/07 13:40:27;;;;;;;3.13;0.60;;;18.60;33.30;;;;;;5059324;28;20041;-79
2022/02/07 13:42:54;;;;;;;0.43;0.30;;;18.40;33.40;;;;;;5056537;28;20509;-80
2022/02/07 13:45:29;;;;;;;0.90;0.40;;;18.40;35.00;;;;;;5061797;28;20067;-80
2022/02/07 13:47:58;;;;;;;0.68;0.25;;;18.00;34.80;;;;;;5067974;28;20120;-81
2022/02/07 13:50:27;;;;;;;2.30;0.40;;;17.50;35.70;;;;;;5065105;28;20025;-80
2022/02/07 13:52:59;;;;;;;1.17;0.40;;;17.40;35.90;;;;;;5060861;28;20024;-81
2022/02/07 13:55:35;;;;;;;1.58;0.75;;;17.40;37.50;;;;;;5063100;28;20063;-81
2022/02/07 13:58:03;;;;;;;2.40;0.63;;;17.90;37.20;;;;;;5059885;28;20123;-80
2022/02/07 14:00:51;;;;;;;2.45;0.50;;;17.60;36.90;;;;;;5069488;28;20131;-80
2022/02/07 14:03:20;;;;;;;2.20;0.65;;;18.00;36.20;;;;;;5078198;28;20123;-80
2022/02/07 14:05:49;;;;;;;0.90;0.47;;;17.20;38.10;;;;;;5083069;28;20078;-81
2022/02/07 14:08:16;;;;;;;4.43;0.98;;;17.30;39.00;;;;;;5079638;28;20379;-82
2022/02/07 14:10:44;;;;;;;0.77;0.40;;;17.30;38.00;;;;;;5082858;28;20036;-81
2022/02/07 14:13:15;;;;;;;0.77;0.38;;;17.50;36.60;;;;;;5075529;28;20020;-80
2022/02/07 14:15:58;;;;;;;;;;;;;;;;;;;;;
2022/02/07 14:18:26;;;;;;;2.60;0.52;;;16.90;39.40;;;;;;5075982;28;20266;-81
2022/02/07 14:20:53;;;;;;;1.35;0.50;;;17.10;38.80;;;;;;5081798;28;20036;-80
2022/02/07 14:23:20;;;;;;;3.47;0.60;;;16.50;40.90;;;;;;5073234;28;20062;-79
2022/02/07 14:25:48;;;;;;;0.85;0.57;;;16.50;42.10;;;;;;5072226;28;20028;-81
2022/02/07 14:28:17;;;;;;;1.98;0.73;;;16.10;43.40;;;;;;5060754;28;20028;-81
2022/02/07 14:30:44;;;;;;;1.58;0.60;;;16.40;44.10;;;;;;5083065;28;20024;-80
2022/02/07 14:33:13;;;;;;;4.20;0.90;;;16.30;44.50;;;;;;5078845;28;20020;-81
2022/02/07 14:35:39;;;;;;;0.90;0.50;;;15.90;43.10;;;;;;5061547;28;20024;-81
2022/02/07 14:38:05;;;;;;;4.18;1.25;;;15.50;43.00;;;;;;5075225;28;20368;-81
2022/02/07 14:40:33;;;;;;;15.82;9.60;;;15.00;44.60;;;;;;5082022;28;20035;-82
2022/02/07 14:43:01;;;;;;;2.15;0.70;;;14.40;44.70;;;;;;5079094;28;20020;-81
2022/02/07 14:45:41;;;;;;;3.30;0.80;;;14.20;44.70;;;;;;5081677;28;20028;-80
2022/02/07 14:48:10;;;;;;;88.72;52.50;;;13.50;45.00;;;;;;5089183;28;20065;-79
2022/02/07 14:50:36;;;;;;;0.98;0.68;;;13.10;46.40;;;;;;5082217;28;20027;-80
2022/02/07 14:53:06;;;;;;;4.45;0.68;;;12.80;46.80;;;;;;5080917;28;20020;-81
2022/02/07 14:55:34;;;;;;;7.30;0.75;;;12.70;47.20;;;;;;5082959;28;20052;-80
2022/02/07 14:58:03;;;;;;;3.55;0.90;;;12.40;47.50;;;;;;5079059;28;20035;-80
2022/02/07 15:00:29;;;;;;;2.38;0.68;;;12.20;49.40;;;;;;5068150;28;20052;-81
2022/02/07 15:02:59;;;;;;;8.73;7.68;;;12.10;48.80;;;;;;5086672;28;20027;-79
2022/02/07 15:05:31;;;;;;;5.07;0.60;;;12.10;49.20;;;;;;5082982;28;20383;-81
2022/02/07 15:07:58;;;;;;;9.88;0.75;;;12.00;48.50;;;;;;5072754;28;20047;-80
2022/02/07 15:10:36;;;;;;;1.10;0.55;;;11.90;48.80;;;;;;5083024;28;20116;-80
2022/02/07 15:13:06;;;;;;;2.00;0.60;;;11.90;48.80;;;;;;5078832;28;20040;-79
2022/02/07 15:15:35;;;;;;;2.05;0.40;;;12.20;48.10;;;;;;5081470;28;20114;-80
2022/02/07 15:18:05;;;;;;;2.17;0.40;;;12.20;46.80;;;;;;5080094;28;20020;-80
2022/02/07 15:20:32;;;;;;;4.05;0.73;;;12.10;47.50;;;;;;5067210;28;20067;-80
2022/02/07 15:22:58;;;;;;;1.85;0.60;;;12.10;47.00;;;;;;5079024;28;20020;-83
2022/02/07 15:25:35;;;;;;;1.38;0.65;;;12.20;46.70;;;;;;5081089;28;20107;-82
2022/02/07 15:28:04;;;;;;;3.22;0.70;;;12.30;47.10;;;;;;5084638;28;20051;-82
2022/02/07 15:30:40;;;;;;;7.53;0.65;;;11.90;49.00;;;;;;5071674;28;20028;-84
2022/02/07 15:33:14;;;;;;;3.35;0.60;;;11.80;49.80;;;;;;5085640;28;20016;-83
2022/02/07 15:35:48;;;;;;;4.20;0.52;;;11.80;49.90;;;;;;5082141;28;20028;-82
2022/02/07 15:38:15;;;;;;;1.23;0.50;;;11.90;49.30;;;;;;5077754;28;20017;-82
2022/02/07 15:40:41;;;;;;;1.15;0.70;;;12.10;48.80;;;;;;5082381;28;20040;-81
2022/02/07 15:43:07;;;;;;;2.67;0.60;;;12.30;47.90;;;;;;5070014;28;20107;-83
2022/02/07 15:45:33;;;;;;;2.13;0.68;;;12.50;48.20;;;;;;5080908;28;20025;-81
2022/02/07 15:48:00;;;;;;;2.45;0.70;;;12.80;48.10;;;;;;5080508;28;20052;-83
2022/02/07 15:50:32;;;;;;;3.58;0.80;;;12.70;49.40;;;;;;5079700;28;20387;-83
2022/02/07 15:52:59;;;;;;;2.13;1.17;;;12.50;48.80;;;;;;5078256;28;20028;-82
2022/02/07 15:55:28;;;;;;;3.50;0.70;;;12.30;49.20;;;;;;5086484;28;20017;-82
2022/02/07 15:57:55;;;;;;;3.08;0.50;;;11.80;50.20;;;;;;5065320;28;20024;-82
2022/02/07 16:00:21;;;;;;;1.30;0.70;;;11.20;51.60;;;;;;5068179;28;20052;-81
2022/02/07 16:02:50;;;;;;;5.55;0.70;;;10.70;52.30;;;;;;5088063;28;20147;-81
2022/02/07 16:05:24;;;;;;;1.67;0.60;;;10.50;53.50;;;;;;5085107;28;20531;-81
2022/02/07 16:07:57;;;;;;;2.78;0.63;;;10.40;53.20;;;;;;5075429;28;20035;-81
2022/02/07 16:10:24;;;;;;;8.52;3.88;;;10.30;53.20;;;;;;5083725;28;20020;-81
2022/02/07 16:13:16;;;;;;;9.73;3.08;;;10.20;52.80;;;;;;5089767;28;20017;-81
2022/02/07 16:15:46;;;;;;;0.95;0.60;;;10.10;53.60;;;;;;5085903;28;20498;-81
2022/02/07 16:18:18;;;;;;;7.30;1.15;;;10.00;53.10;;;;;;5077713;28;20166;-81
2022/02/07 16:20:46;;;;;;;0.55;0.40;;;10.00;54.20;;;;;;5081982;28;20115;-80
2022/02/07 16:23:13;;;;;;;3.30;0.80;;;9.90;53.10;;;;;;5058203;28;20033;-81
2022/02/07 16:25:43;;;;;;;1.65;1.02;;;9.90;53.30;;;;;;5081351;28;20020;-81
2022/02/07 16:28:12;;;;;;;1.42;0.90;;;9.80;53.30;;;;;;5074599;28;20077;-80
2022/02/07 16:30:48;;;;;;;1.60;0.50;;;9.80;52.50;;;;;;5065082;28;20024;-81
2022/02/07 16:33:15;;;;;;;1.23;1.00;;;9.80;50.30;;;;;;5057533;28;20438;-80
2022/02/07 16:35:43;;;;;;;0.68;0.68;;;9.80;50.70;;;;;;5078353;28;20461;-80
2022/02/07 16:38:11;;;;;;;2.20;0.70;;;9.70;50.50;;;;;;5080381;28;20021;-80
2022/02/07 16:40:44;;;;;;;2.22;1.40;;;9.60;50.30;;;;;;5084656;28;20033;-80
2022/02/07 16:43:29;;;;;;;3.92;1.02;;;9.50;50.50;;;;;;5079549;28;20016;-79
2022/02/07 16:48:22;;;;;;;2.15;0.80;;;9.50;50.10;;;;;;5078880;28;20028;-80
2022/02/07 16:50:49;;;;;;;4.63;2.45;;;9.40;50.10;;;;;;5085250;28;20071;-79
2022/02/07 16:53:16;;;;;;;3.75;1.80;;;9.40;50.90;;;;;;5061812;28;20020;-81
2022/02/07 16:55:43;;;;;;;17.70;9.15;;;9.30;51.20;;;;;;5085519;28;20474;-81
2022/02/07 16:58:10;;;;;;;4.05;1.50;;;9.30;51.40;;;;;;5086558;28;20494;-80
2022/02/07 17:00:37;;;;;;;4.70;1.38;;;9.20;51.70;;;;;;5088507;28;20046;-80
2022/02/07 17:03:06;;;;;;;2.95;2.50;;;9.20;51.50;;;;;;5070899;28;20032;-80
2022/02/07 17:05:33;;;;;;;3.92;2.00;;;9.20;51.10;;;;;;5084942;28;20020;-80
2022/02/07 17:07:59;;;;;;;3.95;2.67;;;9.10;51.50;;;;;;5085546;28;20036;-82
2022/02/07 17:10:25;;;;;;;1.63;1.48;;;9.10;51.30;;;;;;5080756;28;20475;-84
2022/02/07 17:12:52;;;;;;;3.08;2.30;;;9.10;51.20;;;;;;5081086;28;20029;-82
2022/02/07 17:15:18;;;;;;;3.58;2.30;;;9.00;51.30;;;;;;5083073;28;20020;-81
2022/02/07 17:17:46;;;;;;;5.38;2.58;;;9.00;51.50;;;;;;5082486;28;20025;-82
2022/02/07 17:20:14;;;;;;;2.83;2.20;;;8.90;52.30;;;;;;5081176;28;20032;-82
2022/02/07 17:22:40;;;;;;;3.05;2.35;;;8.80;52.70;;;;;;5078877;28;20475;-82
2022/02/07 17:25:08;;;;;;;6.32;4.05;;;8.70;52.70;;;;;;5066070;28;20029;-81
2022/02/07 17:27:35;;;;;;;7.40;1.20;;;8.70;53.10;;;;;;5078742;28;20032;-81
2022/02/07 17:30:02;;;;;;;2.30;1.00;;;8.70;52.70;;;;;;5083450;28;20024;-82
2022/02/07 17:32:28;;;;;;;2.45;1.42;;;8.60;52.70;;;;;;5074689;28;20042;-83
2022/02/07 17:34:57;;;;;;;3.42;1.70;;;8.70;52.10;;;;;;5086547;28;20020;-82
2022/02/07 17:37:26;;;;;;;1.95;1.00;;;8.80;52.10;;;;;;5083035;28;20054;-82
2022/02/07 17:40:07;;;;;;;2.90;2.25;;;8.70;52.20;;;;;;5086348;28;20060;-82
2022/02/07 17:42:38;;;;;;;3.33;2.05;;;8.70;52.10;;;;;;5082098;28;20056;-81
2022/02/07 17:45:11;;;;;;;1.55;1.00;;;8.70;52.10;;;;;;5081829;28;20372;-81
2022/02/07 17:47:36;;;;;;;1.52;1.10;;;8.80;52.10;;;;;;5059531;28;20036;-81
2022/02/07 17:50:05;;;;;;;0.88;0.80;;;8.80;51.80;;;;;;5078801;28;20035;-82
2022/02/07 17:52:31;;;;;;;3.88;1.40;;;8.90;51.80;;;;;;5069456;28;20086;-82
2022/02/07 17:54:57;;;;;;;0.68;0.65;;;8.80;51.80;;;;;;5063070;28;20573;-82
2022/02/07 17:57:23;;;;;;;2.83;0.70;;;8.80;51.70;;;;;;5068377;28;20116;-83